createdAt,value
2023-02-13T00:01:34.080Z,102663.09
2023-02-13T00:04:36.677Z,102693.03
2023-02-13T00:07:39.110Z,102694.56
2023-02-13T00:10:41.548Z,102686.72
2023-02-13T00:13:44.104Z,102690.81
2023-02-13T00:16:46.600Z,102677.13
2023-02-13T00:19:49.082Z,102702.44
2023-02-13T00:22:51.591Z,102684.47
2023-02-13T00:25:53.996Z,102690.03
2023-02-13T00:28:57.047Z,102673.41
2023-02-13T00:32:01.418Z,102678.75
2023-02-13T00:35:04.283Z,102679.25
2023-02-13T00:38:06.723Z,102687.41
2023-02-13T00:41:09.891Z,102671.59
2023-02-13T00:44:12.379Z,102676.38
2023-02-13T00:47:14.970Z,102691.31
2023-02-13T00:50:17.684Z,102704.97
2023-02-13T00:53:21.652Z,102681.28
2023-02-13T00:56:24.053Z,102697.38
2023-02-13T00:59:26.546Z,102690.44
2023-02-13T01:02:29.150Z,102684.09
2023-02-13T01:05:32.004Z,102696.56
2023-02-13T01:08:35.078Z,102690.28
2023-02-13T01:11:37.610Z,102691.16
2023-02-13T01:14:39.969Z,102707.06
2023-02-13T01:17:42.455Z,102703.47
2023-02-13T01:20:45.743Z,102704.47
2023-02-13T01:23:48.231Z,102702.75
2023-02-13T01:26:50.661Z,102691.00
2023-02-13T01:29:53.536Z,102704.84
2023-02-13T01:32:55.939Z,102697.53
2023-02-13T01:35:58.506Z,102667.91
2023-02-13T01:39:01.069Z,102697.44
2023-02-13T01:42:03.763Z,102683.06
2023-02-13T01:45:27.567Z,102697.09
2023-02-13T01:48:32.413Z,102676.59
2023-02-13T01:51:36.584Z,102679.38
2023-02-13T01:54:40.326Z,102667.63
2023-02-13T01:57:46.093Z,102679.81
2023-02-13T02:00:51.524Z,102685.94
2023-02-13T02:04:00.308Z,102684.97
2023-02-13T02:07:09.986Z,102670.84
2023-02-13T02:10:16.465Z,102688.63
2023-02-13T02:13:21.137Z,102661.66
2023-02-13T02:16:25.140Z,102663.63
2023-02-13T02:19:42.414Z,102680.38
2023-02-13T02:23:23.072Z,102676.00
2023-02-13T02:26:50.399Z,102677.00
2023-02-13T02:30:17.210Z,102671.84
2023-02-13T02:33:51.865Z,102673.09
2023-02-13T02:37:25.264Z,102671.47
2023-02-13T02:40:46.410Z,102674.03
2023-02-13T02:43:55.875Z,102654.72
2023-02-13T02:47:41.501Z,102666.50
2023-02-13T02:50:54.566Z,102671.97
2023-02-13T02:54:29.541Z,102675.53
2023-02-13T02:57:54.055Z,102641.03
2023-02-13T03:01:16.699Z,102667.91
2023-02-13T03:04:49.470Z,102680.25
2023-02-13T03:07:51.885Z,102692.00
2023-02-13T03:11:12.765Z,102681.66
2023-02-13T03:14:17.911Z,102686.78
2023-02-13T03:17:38.931Z,102669.78
2023-02-13T03:21:18.994Z,102691.09
2023-02-13T03:24:36.928Z,102691.38
2023-02-13T03:28:16.528Z,102660.56
2023-02-13T03:31:27.145Z,102685.53
2023-02-13T03:34:54.148Z,102675.50
2023-02-13T03:38:00.809Z,102687.69
2023-02-13T03:41:28.999Z,102683.66
2023-02-13T03:45:10.149Z,102678.41
2023-02-13T03:48:33.658Z,102667.09
2023-02-13T03:51:50.764Z,102651.41
2023-02-13T03:55:15.005Z,102672.63
2023-02-13T03:58:40.518Z,102670.47
2023-02-13T04:01:50.714Z,102650.00
2023-02-13T04:05:00.128Z,102653.41
2023-02-13T04:08:02.666Z,102659.13
2023-02-13T04:11:37.590Z,102669.81
2023-02-13T04:14:50.296Z,102665.97
2023-02-13T04:17:57.814Z,102667.69
2023-02-13T04:21:07.765Z,102671.72
2023-02-13T04:24:10.491Z,102663.13
2023-02-13T04:27:16.666Z,102671.59
2023-02-13T04:30:19.185Z,102671.53
2023-02-13T04:33:21.696Z,102658.41
2023-02-13T04:36:24.051Z,102658.50
2023-02-13T04:39:26.493Z,102644.47
2023-02-13T04:42:28.854Z,102654.88
2023-02-13T04:45:31.294Z,102625.78
2023-02-13T04:48:34.335Z,102654.66
2023-02-13T04:51:36.835Z,102660.03
2023-02-13T04:54:39.335Z,102643.72
2023-02-13T04:57:41.803Z,102644.69
2023-02-13T05:00:44.259Z,102667.16
2023-02-13T05:03:46.718Z,102645.53
2023-02-13T05:06:49.230Z,102678.25
2023-02-13T05:09:51.631Z,102647.00
2023-02-13T05:12:54.340Z,102651.59
2023-02-13T05:15:57.081Z,102645.84
2023-02-13T05:18:59.573Z,102679.66
2023-02-13T05:22:20.772Z,102663.31
2023-02-13T05:25:23.161Z,102654.56
2023-02-13T05:28:44.343Z,102671.63
2023-02-13T05:31:52.868Z,102665.88
2023-02-13T05:34:55.444Z,102682.72
2023-02-13T05:37:57.852Z,102669.09
2023-02-13T05:41:00.646Z,102687.56
2023-02-13T05:44:04.021Z,102681.00
2023-02-13T05:47:06.465Z,102694.88
2023-02-13T05:50:09.297Z,102697.22
2023-02-13T05:53:11.783Z,102700.03
2023-02-13T05:56:14.289Z,102680.03
2023-02-13T05:59:16.867Z,102690.72
2023-02-13T06:02:19.331Z,102700.97
2023-02-13T06:05:21.726Z,102708.06
2023-02-13T06:08:25.121Z,102693.69
2023-02-13T06:11:27.492Z,102707.47
2023-02-13T06:14:29.887Z,102713.44
2023-02-13T06:17:32.353Z,102719.78
2023-02-13T06:20:34.993Z,102699.13
2023-02-13T06:23:38.121Z,102724.53
2023-02-13T06:26:40.595Z,102720.41
2023-02-13T06:29:43.124Z,102725.84
2023-02-13T06:32:49.155Z,102717.19
2023-02-13T06:35:51.652Z,102730.44
2023-02-13T06:38:54.192Z,102722.38
2023-02-13T06:41:57.036Z,102744.69
2023-02-13T06:44:59.605Z,102752.09
2023-02-13T06:48:02.090Z,102737.63
2023-02-13T06:51:04.880Z,102732.06
2023-02-13T06:54:07.344Z,102734.31
2023-02-13T06:57:09.837Z,102737.13
2023-02-13T07:00:14.370Z,102732.41
2023-02-13T07:03:16.947Z,102732.72
2023-02-13T07:06:20.828Z,102741.66
2023-02-13T07:09:26.380Z,102743.69
2023-02-13T07:12:29.438Z,102711.97
2023-02-13T07:15:32.934Z,102719.50
2023-02-13T07:18:37.553Z,102732.97
2023-02-13T07:21:40.824Z,102741.34
2023-02-13T07:24:43.535Z,102728.72
2023-02-13T07:27:46.038Z,102736.88
2023-02-13T07:30:48.511Z,102734.34
2023-02-13T07:33:51.095Z,102752.72
2023-02-13T07:36:53.492Z,102750.22
2023-02-13T07:39:56.076Z,102746.25
2023-02-13T07:43:00.785Z,102744.97
2023-02-13T07:46:04.104Z,102735.56
2023-02-13T07:49:06.650Z,102744.66
2023-02-13T07:52:09.192Z,102748.97
2023-02-13T07:55:12.248Z,102738.72
2023-02-13T07:58:14.653Z,102736.25
2023-02-13T08:01:17.427Z,102724.63
2023-02-13T08:04:20.145Z,102755.03
2023-02-13T08:07:22.704Z,102746.63
2023-02-13T08:10:43.750Z,102735.22
2023-02-13T08:13:46.371Z,102741.84
2023-02-13T08:16:48.965Z,102732.41
2023-02-13T08:19:51.426Z,102740.44
2023-02-13T08:22:53.917Z,102749.00
2023-02-13T08:26:01.160Z,102746.56
2023-02-13T08:29:05.053Z,102736.53
2023-02-13T08:32:08.233Z,102725.47
2023-02-13T08:35:10.761Z,102724.94
2023-02-13T08:38:13.206Z,102732.56
2023-02-13T08:44:25.641Z,102708.88
2023-02-13T08:47:28.132Z,102691.94
2023-02-13T08:50:31.072Z,102722.97
2023-02-13T08:53:34.225Z,102687.19
2023-02-13T08:56:37.039Z,102711.22
2023-02-13T08:59:39.599Z,102712.56
2023-02-13T09:02:42.684Z,102715.06
2023-02-13T09:05:45.312Z,102691.56
2023-02-13T09:08:47.895Z,102715.50
2023-02-13T09:11:51.692Z,102708.34
2023-02-13T09:14:57.070Z,102700.88
2023-02-13T09:17:59.693Z,102717.59
2023-02-13T09:21:06.772Z,102717.00
2023-02-13T09:24:10.214Z,102722.44
2023-02-13T09:27:12.784Z,102715.56
2023-02-13T09:30:23.152Z,102727.44
2023-02-13T09:33:26.385Z,102727.66
2023-02-13T09:36:28.909Z,102703.16
2023-02-13T09:39:31.396Z,102722.06
2023-02-13T09:42:37.140Z,102700.69
2023-02-13T09:45:44.717Z,102713.34
2023-02-13T09:48:50.217Z,102684.78
2023-02-13T09:51:56.543Z,102716.63
2023-02-13T09:54:59.177Z,102711.09
2023-02-13T09:58:24.052Z,102714.63
2023-02-13T10:01:34.260Z,102702.28
2023-02-13T10:04:59.806Z,102704.94
2023-02-13T10:08:21.676Z,102693.44
2023-02-13T10:12:01.785Z,102682.19
2023-02-13T10:15:20.726Z,102700.31
2023-02-13T10:18:32.048Z,102691.56
2023-02-13T10:21:38.778Z,102651.81
2023-02-13T10:24:45.141Z,102663.47
2023-02-13T10:27:51.152Z,102637.94
2023-02-13T10:30:57.264Z,102662.38
2023-02-13T10:34:03.306Z,102650.97
2023-02-13T10:37:13.900Z,102622.69
2023-02-13T10:40:17.534Z,102628.78
2023-02-13T10:43:21.388Z,102618.59
2023-02-13T10:46:40.613Z,102629.69
2023-02-13T10:50:20.896Z,102622.91
2023-02-13T10:53:35.899Z,102630.91
2023-02-13T10:56:43.601Z,102623.38
2023-02-13T10:59:52.843Z,102613.34
2023-02-13T11:02:56.035Z,102603.59
2023-02-13T11:06:00.174Z,102590.66
2023-02-13T11:09:02.923Z,102598.50
2023-02-13T11:12:26.088Z,102611.97
2023-02-13T11:15:31.083Z,102587.47
2023-02-13T11:18:37.355Z,102589.09
2023-02-13T11:21:40.343Z,102581.91
2023-02-13T11:24:52.160Z,102600.38
2023-02-13T11:28:08.739Z,102599.53
2023-02-13T11:31:22.390Z,102593.09
2023-02-13T11:34:26.855Z,102579.91
2023-02-13T11:37:31.627Z,102578.66
2023-02-13T11:40:34.074Z,102595.59
2023-02-13T11:43:51.794Z,102584.28
2023-02-13T11:46:56.315Z,102569.69
2023-02-13T11:49:58.906Z,102553.22
2023-02-13T11:53:07.757Z,102565.63
2023-02-13T11:56:13.643Z,102570.63
2023-02-13T11:59:16.264Z,102545.91
2023-02-13T12:02:21.367Z,102565.84
2023-02-13T12:05:26.297Z,102547.00
2023-02-13T12:08:30.120Z,102541.19
2023-02-13T12:11:38.941Z,102551.81
2023-02-13T12:14:44.233Z,102544.28
2023-02-13T12:17:50.095Z,102540.28
2023-02-13T12:21:01.748Z,102546.88
2023-02-13T12:24:17.786Z,102543.41
2023-02-13T12:27:23.846Z,102534.06
2023-02-13T12:30:48.241Z,102536.53
2023-02-13T12:34:28.262Z,102532.06
2023-02-13T12:37:42.656Z,102518.03
2023-02-13T12:40:51.790Z,102512.34
2023-02-13T12:43:56.940Z,102515.34
2023-02-13T12:47:19.472Z,102517.63
2023-02-13T12:50:43.777Z,102503.75
2023-02-13T12:54:31.041Z,102501.97
2023-02-13T12:58:10.833Z,102504.44
2023-02-13T13:01:18.935Z,102511.31
2023-02-13T13:04:31.784Z,102512.09
2023-02-13T13:07:40.405Z,102512.63
2023-02-13T13:11:04.095Z,102507.84
2023-02-13T13:14:11.800Z,102513.94
2023-02-13T13:17:36.287Z,102509.44
2023-02-13T13:21:18.613Z,102504.41
2023-02-13T13:24:47.095Z,102506.53
2023-02-13T13:27:55.724Z,102506.00
2023-02-13T13:30:59.255Z,102496.47
2023-02-13T13:34:06.883Z,102486.66
2023-02-13T13:37:37.893Z,102492.22
2023-02-13T13:40:53.016Z,102501.66
2023-02-13T13:44:23.890Z,102495.88
2023-02-13T13:47:54.260Z,102491.44
2023-02-13T13:50:57.826Z,102479.28
2023-02-13T13:54:00.422Z,102488.00
2023-02-13T13:57:02.865Z,102495.16
2023-02-13T14:00:08.335Z,102497.78
2023-02-13T14:03:23.614Z,102490.50
2023-02-13T14:06:27.739Z,102502.75
2023-02-13T14:09:43.455Z,102497.63
2023-02-13T14:12:48.334Z,102468.78
2023-02-13T14:15:52.746Z,102508.94
2023-02-13T14:18:55.585Z,102479.19
2023-02-13T14:22:24.777Z,102499.75
2023-02-13T14:25:28.141Z,102491.44
2023-02-13T14:28:30.543Z,102501.53
2023-02-13T14:31:41.544Z,102502.06
2023-02-13T14:34:51.568Z,102477.84
2023-02-13T14:38:00.467Z,102495.75
2023-02-13T14:41:02.910Z,102492.38
2023-02-13T14:44:05.384Z,102496.97
2023-02-13T14:47:23.374Z,102508.13
2023-02-13T14:50:46.628Z,102490.63
2023-02-13T14:53:53.844Z,102484.56
2023-02-13T14:57:17.938Z,102482.09
2023-02-13T15:00:41.515Z,102469.16
2023-02-13T15:03:49.477Z,102478.22
2023-02-13T15:06:53.965Z,102488.56
2023-02-13T15:10:04.373Z,102494.63
2023-02-13T15:13:15.313Z,102480.53
2023-02-13T15:16:19.166Z,102464.69
2023-02-13T15:19:23.000Z,102467.25
2023-02-13T15:22:32.997Z,102477.59
2023-02-13T15:25:36.819Z,102470.09
2023-02-13T15:28:39.336Z,102442.66
2023-02-13T15:31:41.997Z,102450.03
2023-02-13T15:34:47.244Z,102449.41
2023-02-13T15:37:49.842Z,102436.06
2023-02-13T15:40:55.987Z,102428.31
2023-02-13T15:43:59.366Z,102437.84
2023-02-13T15:47:07.419Z,102440.53
2023-02-13T15:50:24.694Z,102427.13
2023-02-13T15:53:29.748Z,102427.59
2023-02-13T15:56:32.844Z,102433.19
2023-02-13T15:59:37.903Z,102436.53
2023-02-13T16:02:43.946Z,102438.75
2023-02-13T16:05:47.124Z,102438.97
2023-02-13T16:08:54.527Z,102453.91
2023-02-13T16:12:01.659Z,102451.19
2023-02-13T16:15:06.032Z,102441.84
2023-02-13T16:18:18.884Z,102428.38
2023-02-13T16:21:23.762Z,102444.22
2023-02-13T16:24:27.185Z,102432.50
2023-02-13T16:27:29.959Z,102441.38
2023-02-13T16:30:44.080Z,102443.44
2023-02-13T16:33:46.695Z,102438.97
2023-02-13T16:36:49.775Z,102435.56
2023-02-13T16:39:52.271Z,102429.84
2023-02-13T16:43:33.340Z,102443.28
2023-02-13T16:46:53.230Z,102394.03
2023-02-13T16:49:57.077Z,102429.91
2023-02-13T16:53:03.894Z,102429.22
2023-02-13T16:56:08.837Z,102436.41
2023-02-13T16:59:22.393Z,102427.63
2023-02-13T17:02:27.301Z,102420.44
2023-02-13T17:05:29.977Z,102428.84
2023-02-13T17:08:32.975Z,102427.69
2023-02-13T17:11:35.465Z,102435.81
2023-02-13T17:14:38.098Z,102435.44
2023-02-13T17:17:41.055Z,102412.66
2023-02-13T17:20:44.489Z,102419.63
2023-02-13T17:23:48.368Z,102418.81
2023-02-13T17:26:51.003Z,102410.47
2023-02-13T17:29:53.663Z,102411.59
2023-02-13T17:33:00.149Z,102391.81
2023-02-13T17:36:02.670Z,102389.91
2023-02-13T17:39:05.331Z,102414.00
2023-02-13T17:42:24.519Z,102393.38
2023-02-13T17:45:30.196Z,102356.47
2023-02-13T17:48:32.923Z,102368.25
2023-02-13T17:51:37.112Z,102360.00
2023-02-13T17:54:39.919Z,102379.41
2023-02-13T17:57:42.962Z,102378.13
2023-02-13T18:00:45.718Z,102367.06
2023-02-13T18:03:49.487Z,102371.28
2023-02-13T18:06:53.276Z,102377.19
2023-02-13T18:09:57.083Z,102371.72
2023-02-13T18:13:04.379Z,102371.84
2023-02-13T18:16:10.315Z,102350.78
2023-02-13T18:19:14.066Z,102348.19
2023-02-13T18:22:17.040Z,102368.22
2023-02-13T18:25:20.390Z,102371.41
2023-02-13T18:28:23.038Z,102357.94
2023-02-13T18:31:25.803Z,102367.59
2023-02-13T18:34:28.598Z,102345.31
2023-02-13T18:37:33.559Z,102331.84
2023-02-13T18:40:36.332Z,102336.59
2023-02-13T18:43:39.440Z,102355.34
2023-02-13T18:46:42.587Z,102333.47
2023-02-13T18:49:46.425Z,102316.06
2023-02-13T18:52:49.678Z,102313.88
2023-02-13T18:56:06.054Z,102320.00
2023-02-13T18:59:08.846Z,102311.97
2023-02-13T19:02:12.005Z,102331.25
2023-02-13T19:05:14.870Z,102315.88
2023-02-13T19:08:18.317Z,102314.22
2023-02-13T19:11:24.114Z,102341.34
2023-02-13T19:14:26.949Z,102331.41
2023-02-13T19:17:29.782Z,102320.03
2023-02-13T19:20:32.764Z,102332.47
2023-02-13T19:23:36.271Z,102327.88
2023-02-13T19:26:38.939Z,102342.16
2023-02-13T19:29:41.682Z,102328.66
2023-02-13T19:32:45.448Z,102345.47
2023-02-13T19:36:04.670Z,102336.53
2023-02-13T19:39:09.106Z,102345.13
2023-02-13T19:42:11.843Z,102332.13
2023-02-13T19:45:14.569Z,102320.84
2023-02-13T19:48:17.396Z,102319.22
2023-02-13T19:51:28.290Z,102309.25
2023-02-13T19:54:31.105Z,102324.06
2023-02-13T19:57:33.759Z,102343.38
2023-02-13T20:00:37.310Z,102354.66
2023-02-13T20:03:41.271Z,102335.00
2023-02-13T20:06:45.433Z,102354.75
2023-02-13T20:09:47.960Z,102339.47
2023-02-13T20:12:54.342Z,102340.19
2023-02-13T20:15:57.046Z,102355.00
2023-02-13T20:19:03.160Z,102353.00
2023-02-13T20:22:05.883Z,102371.22
2023-02-13T20:25:08.872Z,102360.97
2023-02-13T20:28:11.876Z,102365.50
2023-02-13T20:31:17.708Z,102365.81
2023-02-13T20:34:20.476Z,102378.50
2023-02-13T20:37:23.210Z,102371.47
2023-02-13T20:40:26.746Z,102372.22
2023-02-13T20:43:29.782Z,102378.06
2023-02-13T20:46:33.546Z,102346.81
2023-02-13T20:49:36.244Z,102380.38
2023-02-13T20:52:39.088Z,102396.25
2023-02-13T20:55:42.827Z,102388.63
2023-02-13T20:58:48.148Z,102395.25
2023-02-13T21:01:51.067Z,102392.97
2023-02-13T21:04:53.837Z,102377.66
2023-02-13T21:07:56.584Z,102360.91
2023-02-13T21:11:03.987Z,102365.19
2023-02-13T21:14:07.258Z,102350.13
2023-02-13T21:17:10.020Z,102354.03
2023-02-13T21:20:12.726Z,102367.53
2023-02-13T21:23:15.243Z,102362.66
2023-02-13T21:26:18.082Z,102369.38
2023-02-13T21:29:21.124Z,102370.34
2023-02-13T21:32:23.702Z,102374.09
2023-02-13T21:35:26.378Z,102346.47
2023-02-13T21:38:29.011Z,102350.44
2023-02-13T21:41:32.419Z,102363.47
2023-02-13T21:44:35.011Z,102342.19
2023-02-13T21:47:38.134Z,102324.19
2023-02-13T21:50:40.562Z,102332.13
2023-02-13T21:53:43.438Z,102336.34
2023-02-13T21:56:46.063Z,102347.88
2023-02-13T21:59:48.746Z,102353.00
2023-02-13T22:02:51.441Z,102337.19
2023-02-13T22:05:53.982Z,102345.03
2023-02-13T22:09:07.943Z,102338.81
2023-02-13T22:12:10.390Z,102331.38
2023-02-13T22:15:15.586Z,102346.34
2023-02-13T22:18:18.131Z,102346.47
2023-02-13T22:21:22.435Z,102323.88
2023-02-13T22:24:25.371Z,102305.34
2023-02-13T22:27:27.819Z,102309.41
2023-02-13T22:30:30.356Z,102284.44
2023-02-13T22:33:33.957Z,102307.09
2023-02-13T22:36:41.043Z,102306.66
2023-02-13T22:39:43.602Z,102317.19
2023-02-13T22:42:46.013Z,102309.66
2023-02-13T22:45:48.451Z,102310.69
2023-02-13T22:48:52.496Z,102305.78
2023-02-13T22:51:55.239Z,102321.56
2023-02-13T22:54:58.106Z,102339.25
2023-02-13T22:58:00.539Z,102347.53
2023-02-13T23:01:09.670Z,102320.03
2023-02-13T23:04:12.691Z,102338.09
2023-02-13T23:07:18.487Z,102334.19
2023-02-13T23:10:21.637Z,102325.97
2023-02-13T23:13:24.073Z,102310.63
2023-02-13T23:16:27.174Z,102327.69
2023-02-13T23:19:30.702Z,102307.34
2023-02-13T23:22:34.235Z,102306.72
2023-02-13T23:25:38.422Z,102318.22
2023-02-13T23:28:40.857Z,102327.13
2023-02-13T23:31:43.495Z,102327.25
2023-02-13T23:34:46.039Z,102325.75
2023-02-13T23:37:48.490Z,102331.59
2023-02-13T23:40:50.908Z,102310.56
2023-02-13T23:43:53.458Z,102291.38
2023-02-13T23:46:55.913Z,102311.88
2023-02-13T23:49:58.479Z,102314.53
2023-02-13T23:53:01.090Z,102296.38
2023-02-13T23:56:04.996Z,102311.66
2023-02-13T23:59:07.393Z,102301.91
